Time;durP1;ratioP1;P1;durP2;ratioP2;P2;SDS_P1;SDS_P2;PMS_P1;PMS_P2;Temp;Humidity;BMP_temperature;BMP_pressure;BME280_temperature;BME280_humidity;BME280_pressure;Samples;Min_cycle;Max_cycle;Signal;HPM_P1;HPM_P2
2021/03/04 00:01:13;;;;;;;148.38;17.13;;;;;;;1.99;88.96;101538.53;5130704;27;20113;-74
2021/03/04 00:03:39;;;;;;;107.40;11.27;;;;;;;1.89;89.02;101538.91;5112856;27;20030;-74
2021/03/04 00:06:05;;;;;;;141.52;13.35;;;;;;;1.84;89.36;101535.16;5113047;27;20031;-74
2021/03/04 00:08:30;;;;;;;71.65;8.70;;;;;;;1.75;89.73;101532.63;5130567;27;20083;-74
2021/03/04 00:10:56;;;;;;;112.22;9.90;;;;;;;1.71;89.38;101536.72;5113219;27;20039;-74
2021/03/04 00:13:21;;;;;;;120.32;9.38;;;;;;;1.64;88.96;101546.63;5132735;27;20050;-75
2021/03/04 00:15:46;;;;;;;44.42;4.40;;;;;;;1.54;89.58;101575.69;5129483;27;20076;-74
2021/03/04 00:18:12;;;;;;;43.83;4.15;;;;;;;1.28;88.60;101558.34;5131865;27;20080;-75
2021/03/04 00:20:37;;;;;;;34.95;4.30;;;;;;;1.06;89.10;101580.81;5133998;27;20018;-74
2021/03/04 00:23:03;;;;;;;29.17;4.35;;;;;;;0.94;89.13;101552.84;5110683;28;20491;-74
2021/03/04 00:25:30;;;;;;;42.28;3.88;;;;;;;0.81;89.17;101564.25;5122482;27;20030;-74
2021/03/04 00:27:55;;;;;;;11.45;2.20;;;;;;;0.71;89.44;101561.03;5124848;27;20447;-74
2021/03/04 00:30:21;;;;;;;18.02;2.47;;;;;;;0.62;89.71;101571.06;5125548;27;20063;-74
2021/03/04 00:32:47;;;;;;;30.60;3.40;;;;;;;0.56;89.55;101575.31;5076759;27;20548;-75
2021/03/04 00:35:12;;;;;;;35.50;3.80;;;;;;;0.54;89.35;101560.44;5091891;28;20032;-74
2021/03/04 00:37:38;;;;;;;40.03;4.63;;;;;;;0.51;89.36;101568.88;5086959;28;20118;-75
2021/03/04 00:40:21;;;;;;;35.70;4.53;;;;;;;0.50;89.95;101580.63;5113007;27;20027;-74
2021/03/04 00:42:47;;;;;;;24.95;2.92;;;;;;;0.49;89.61;101576.25;5087434;28;20039;-74
2021/03/04 00:45:17;;;;;;;42.90;5.38;;;;;;;0.50;89.62;101576.09;5113477;27;20027;-74
2021/03/04 00:47:42;;;;;;;19.30;2.78;;;;;;;0.52;89.98;101570.53;5128617;27;20414;-74
2021/03/04 00:50:09;;;;;;;23.08;3.83;;;;;;;0.54;90.18;101577.34;5127618;27;20044;-74
2021/03/04 00:52:34;;;;;;;31.52;4.38;;;;;;;0.59;89.85;101576.81;5107425;27;20023;-74
2021/03/04 00:55:00;;;;;;;38.97;6.30;;;;;;;0.62;90.54;101560.31;5111262;27;20027;-74
2021/03/04 00:57:25;;;;;;;16.65;4.90;;;;;;;0.64;89.94;101571.72;5112902;27;20026;-74
2021/03/04 00:59:51;;;;;;;26.17;6.68;;;;;;;0.68;89.96;101569.47;5121020;27;20023;-74
2021/03/04 01:02:17;;;;;;;14.18;5.72;;;;;;;0.71;90.34;101569.94;5130333;27;20551;-74
2021/03/04 01:04:42;;;;;;;11.20;5.13;;;;;;;0.76;90.05;101564.81;5107337;27;20073;-74
2021/03/04 01:07:08;;;;;;;11.20;5.97;;;;;;;0.81;90.63;101562.41;5107703;28;20034;-74
2021/03/04 01:09:33;;;;;;;14.30;7.25;;;;;;;0.86;90.61;101559.97;5126006;27;20019;-75
2021/03/04 01:11:59;;;;;;;13.55;6.75;;;;;;;0.91;89.83;101555.91;5128685;27;20031;-75
2021/03/04 01:14:24;;;;;;;13.98;7.82;;;;;;;0.95;90.18;101562.53;5129975;27;20483;-74
2021/03/04 01:16:50;;;;;;;13.43;6.30;;;;;;;0.99;90.33;101563.84;5109791;28;20020;-75
2021/03/04 01:19:15;;;;;;;12.20;6.30;;;;;;;1.01;90.42;101561.75;5129754;27;20494;-74
2021/03/04 01:21:40;;;;;;;15.70;7.47;;;;;;;1.04;90.25;101564.09;5130486;27;20019;-75
2021/03/04 01:24:07;;;;;;;16.42;7.97;;;;;;;1.06;90.22;101553.97;5126903;28;20023;-75
2021/03/04 01:26:32;;;;;;;15.90;7.60;;;;;;;1.11;90.04;101559.59;5126199;27;20415;-75
2021/03/04 01:28:58;;;;;;;16.88;6.78;;;;;;;1.15;90.25;101557.38;5093342;28;20032;-75
2021/03/04 01:31:23;;;;;;;12.48;6.70;;;;;;;1.17;90.24;101553.44;5127748;28;20091;-75
2021/03/04 01:33:48;;;;;;;12.27;6.82;;;;;;;1.20;90.50;101550.41;5130639;27;20027;-74
2021/03/04 01:36:14;;;;;;;12.93;7.30;;;;;;;1.25;89.86;101547.94;5108249;28;20046;-74
2021/03/04 01:38:39;;;;;;;9.93;6.53;;;;;;;1.29;90.11;101538.50;5121649;27;20030;-74
2021/03/04 01:41:06;;;;;;;13.00;7.40;;;;;;;1.33;89.79;101545.13;5109504;28;20044;-75
2021/03/04 01:43:31;;;;;;;11.35;6.90;;;;;;;1.38;89.94;101546.41;5111738;28;20019;-74
2021/03/04 01:45:57;;;;;;;14.30;6.38;;;;;;;1.42;89.93;101547.66;5132794;28;20031;-74
2021/03/04 01:48:22;;;;;;;8.82;6.10;;;;;;;1.45;90.22;101541.94;5123412;27;20031;-74
2021/03/04 01:50:48;;;;;;;10.07;6.55;;;;;;;1.47;90.30;101534.50;5109434;28;20080;-74
2021/03/04 01:53:13;;;;;;;15.40;6.07;;;;;;;1.48;89.93;101537.00;5111650;27;20103;-74
2021/03/04 01:55:38;;;;;;;11.38;5.93;;;;;;;1.49;90.30;101548.56;5097075;28;20060;-74
2021/03/04 01:58:04;;;;;;;9.82;5.95;;;;;;;1.49;89.49;101551.25;5111263;28;20638;-75
2021/03/04 02:00:29;;;;;;;8.63;5.38;;;;;;;1.47;90.06;101550.59;5093680;28;20041;-74
2021/03/04 02:02:55;;;;;;;9.38;5.40;;;;;;;1.43;90.17;101546.66;5130360;28;20031;-74
2021/03/04 02:05:20;;;;;;;9.75;5.65;;;;;;;1.39;90.24;101546.22;5114313;28;20030;-75
2021/03/04 02:08:23;;;;;;;11.40;5.43;;;;;;;1.38;90.14;101557.16;5092993;28;20031;-75
2021/03/04 02:10:55;;;;;;;10.00;5.93;;;;;;;1.35;89.58;101547.63;5127902;28;20055;-74
2021/03/04 02:13:30;;;;;;;9.38;5.32;;;;;;;1.37;89.86;101552.81;5114278;28;20045;-75
2021/03/04 02:16:22;;;;;;;13.32;5.70;;;;;;;1.37;89.29;101548.28;5085981;27;20613;-75
2021/03/04 02:18:53;;;;;;;13.75;5.28;;;;;;;1.41;89.66;101548.72;5101793;27;20042;-74
2021/03/04 02:21:42;;;;;;;9.27;4.80;;;;;;;1.44;89.72;101561.75;5097398;28;20503;-74
2021/03/04 02:24:27;;;;;;;10.02;5.20;;;;;;;1.48;89.79;101560.34;5109140;27;20069;-75
2021/03/04 02:27:13;;;;;;;10.15;4.93;;;;;;;1.49;89.68;101557.44;5112685;27;20106;-75
2021/03/04 02:29:43;;;;;;;8.07;4.47;;;;;;;1.52;90.03;101558.91;5113505;27;20103;-75
2021/03/04 02:32:09;;;;;;;8.65;4.40;;;;;;;1.56;89.53;101560.22;5116650;27;20114;-75
2021/03/04 02:34:35;;;;;;;9.15;5.45;;;;;;;1.60;89.78;101560.63;5111699;27;20020;-74
2021/03/04 02:37:00;;;;;;;8.95;5.07;;;;;;;1.62;89.19;101558.59;5114641;27;20080;-75
2021/03/04 02:39:26;;;;;;;8.90;5.07;;;;;;;1.64;89.70;101561.94;5095811;27;20378;-75
2021/03/04 02:41:52;;;;;;;7.35;4.82;;;;;;;1.64;89.47;101568.13;5095676;28;20538;-75
2021/03/04 02:44:18;;;;;;;7.78;4.18;;;;;;;1.66;89.71;101568.75;5125548;27;20034;-75
2021/03/04 02:46:43;;;;;;;6.82;4.13;;;;;;;1.66;89.97;101566.03;5098123;27;20015;-75
2021/03/04 02:49:09;;;;;;;11.25;4.90;;;;;;;1.69;89.77;101571.06;5115476;27;20042;-75
2021/03/04 02:51:35;;;;;;;5.32;3.95;;;;;;;1.68;89.46;101564.00;5115950;27;20015;-74
2021/03/04 02:54:01;;;;;;;6.55;3.58;;;;;;;1.70;89.42;101567.34;5106974;27;20027;-75
2021/03/04 02:56:26;;;;;;;6.03;3.83;;;;;;;1.70;89.19;101575.41;5115954;27;20294;-75
2021/03/04 02:58:52;;;;;;;7.47;3.45;;;;;;;1.71;89.47;101574.34;5096834;27;20035;-75
2021/03/04 03:01:18;;;;;;;5.95;3.42;;;;;;;1.71;89.26;101578.91;5099693;27;20083;-75
2021/03/04 03:03:44;;;;;;;5.15;3.40;;;;;;;1.72;89.06;101575.22;5095448;27;20034;-74
2021/03/04 03:06:09;;;;;;;4.60;3.13;;;;;;;1.71;89.19;101582.44;5096305;27;20031;-75
2021/03/04 03:08:35;;;;;;;5.50;3.67;;;;;;;1.70;89.03;101578.09;5130040;27;20031;-75
2021/03/04 03:11:00;;;;;;;6.75;3.25;;;;;;;1.71;89.55;101579.72;5115628;27;20034;-74
2021/03/04 03:13:26;;;;;;;6.53;2.67;;;;;;;1.72;89.13;101581.41;5098782;27;20027;-75
2021/03/04 03:15:51;;;;;;;4.78;2.75;;;;;;;1.71;89.00;101590.50;5099411;27;20027;-74
2021/03/04 03:18:17;;;;;;;5.13;2.67;;;;;;;1.72;88.66;101597.53;5095731;28;20042;-75
2021/03/04 03:20:42;;;;;;;2.75;2.13;;;;;;;1.71;88.61;101592.34;5123510;27;20034;-76
2021/03/04 03:23:07;;;;;;;6.60;2.88;;;;;;;1.70;88.74;101590.69;5127835;27;20019;-75
2021/03/04 03:25:33;;;;;;;3.85;2.50;;;;;;;1.70;89.14;101591.53;5131035;27;20033;-74
2021/03/04 03:27:58;;;;;;;5.43;2.97;;;;;;;1.70;88.47;101599.59;5131498;27;20027;-75
2021/03/04 03:30:25;;;;;;;4.43;2.70;;;;;;;1.68;88.62;101604.31;5115287;27;20480;-75
2021/03/04 03:33:03;;;;;;;3.05;2.00;;;;;;;1.68;87.95;101604.31;5114621;27;20031;-75
2021/03/04 03:35:29;;;;;;;3.95;2.08;;;;;;;1.68;88.09;101612.38;5133863;27;20110;-75
2021/03/04 03:37:56;;;;;;;3.72;2.83;;;;;;;1.67;88.30;101616.13;5113192;27;20445;-75
2021/03/04 03:40:23;;;;;;;3.10;1.50;;;;;;;1.69;87.94;101627.50;5110211;28;20465;-75
2021/03/04 03:42:48;;;;;;;4.85;2.65;;;;;;;1.70;87.54;101634.53;5112566;27;20070;-75
2021/03/04 03:45:16;;;;;;;2.92;2.30;;;;;;;1.71;87.55;101633.50;5116227;27;20496;-75
2021/03/04 03:47:41;;;;;;;3.72;2.00;;;;;;;1.72;86.73;101645.94;5133374;27;20119;-75
2021/03/04 03:50:07;;;;;;;4.15;2.10;;;;;;;1.72;86.91;101642.41;5113052;27;20019;-75
2021/03/04 03:52:33;;;;;;;2.80;1.77;;;;;;;1.73;86.39;101654.81;5090514;27;20047;-75
2021/03/04 03:54:59;;;;;;;3.90;1.40;;;;;;;1.74;86.34;101657.31;5109889;27;20847;-75
2021/03/04 03:57:26;;;;;;;2.42;1.52;;;;;;;1.74;86.69;101656.47;5079004;27;20487;-75
2021/03/04 03:59:51;;;;;;;3.33;2.08;;;;;;;1.76;86.07;101652.56;5092244;27;20024;-75
2021/03/04 04:02:17;;;;;;;17.02;6.35;;;;;;;1.77;86.26;101656.09;5109242;27;20024;-75
2021/03/04 04:04:42;;;;;;;3.08;1.67;;;;;;;1.77;86.04;101648.88;5091159;27;20392;-75
2021/03/04 04:07:08;;;;;;;3.90;1.90;;;;;;;1.78;86.01;101649.69;5093182;27;20474;-75
2021/03/04 04:09:34;;;;;;;4.30;2.33;;;;;;;1.77;85.91;101643.50;5121872;27;20035;-75
2021/03/04 04:11:59;;;;;;;1.90;1.35;;;;;;;1.78;85.78;101644.31;5126379;27;20031;-75
2021/03/04 04:14:24;;;;;;;4.43;1.70;;;;;;;1.77;85.70;101645.31;5125047;27;20439;-75
2021/03/04 04:16:51;;;;;;;2.47;1.23;;;;;;;1.77;85.50;101643.50;5124820;27;20030;-75
2021/03/04 04:19:17;;;;;;;2.30;1.63;;;;;;;1.78;85.38;101645.16;5089352;27;20403;-75
2021/03/04 04:21:42;;;;;;;3.45;1.63;;;;;;;1.79;85.04;101645.97;5119707;27;20030;-74
2021/03/04 04:24:08;;;;;;;3.40;1.45;;;;;;;1.77;84.58;101639.97;5088788;27;20478;-75
2021/03/04 04:26:34;;;;;;;3.75;1.77;;;;;;;1.77;84.96;101648.03;5106426;27;20057;-75
2021/03/04 04:28:59;;;;;;;5.63;2.63;;;;;;;1.77;84.52;101648.88;5123599;27;20031;-75
2021/03/04 04:31:24;;;;;;;1.73;1.23;;;;;;;1.77;84.01;101640.81;5120020;27;20229;-75
2021/03/04 04:33:50;;;;;;;2.95;1.63;;;;;;;1.77;84.40;101656.94;5113908;27;20030;-74
2021/03/04 04:36:15;;;;;;;1.85;1.20;;;;;;;1.76;84.50;101649.88;5118121;27;20568;-74
2021/03/04 04:38:41;;;;;;;2.83;1.55;;;;;;;1.76;84.33;101651.75;5119043;27;20022;-75
2021/03/04 04:41:06;;;;;;;4.55;1.33;;;;;;;1.76;84.12;101644.50;5120401;27;20050;-75
2021/03/04 04:43:32;;;;;;;2.78;1.50;;;;;;;1.75;83.87;101640.16;5121047;27;20035;-75
2021/03/04 04:45:57;;;;;;;5.70;3.42;;;;;;;1.77;84.03;101643.50;5087301;27;20031;-75
2021/03/04 04:48:22;;;;;;;1.85;1.42;;;;;;;1.78;83.98;101642.47;5112594;27;20475;-75
2021/03/04 04:50:48;;;;;;;3.80;1.30;;;;;;;1.78;84.03;101650.53;5098071;27;20381;-75
2021/03/04 04:53:15;;;;;;;2.67;1.42;;;;;;;1.81;83.85;101645.78;5112544;27;20411;-76
2021/03/04 04:55:40;;;;;;;2.50;1.42;;;;;;;1.81;83.34;101643.09;5112106;27;20020;-75
2021/03/04 04:58:05;;;;;;;1.50;1.05;;;;;;;1.80;83.29;101646.81;5113958;27;20019;-75
2021/03/04 05:00:31;;;;;;;2.30;1.48;;;;;;;1.80;83.34;101654.88;5094320;27;20027;-75
2021/03/04 05:02:56;;;;;;;4.05;1.40;;;;;;;1.80;82.90;101662.94;5079397;27;20027;-75
2021/03/04 05:05:22;;;;;;;2.95;1.48;;;;;;;1.80;83.06;101663.78;5113023;27;20035;-75
2021/03/04 05:07:47;;;;;;;3.05;1.38;;;;;;;1.80;82.52;101662.94;5094352;27;21740;-75
2021/03/04 05:10:14;;;;;;;3.33;1.38;;;;;;;1.81;82.90;101659.25;5081536;27;21233;-75
2021/03/04 05:12:40;;;;;;;5.30;1.30;;;;;;;1.78;82.26;101663.16;5096500;27;20031;-75
2021/03/04 05:15:07;;;;;;;4.75;2.08;;;;;;;1.77;82.84;101656.94;5091982;27;20035;-75
2021/03/04 05:17:32;;;;;;;2.22;1.30;;;;;;;1.76;82.39;101657.13;5078574;27;20598;-75
2021/03/04 05:19:58;;;;;;;3.40;1.67;;;;;;;1.75;82.40;101655.47;5097228;27;20035;-75
2021/03/04 05:22:23;;;;;;;3.35;1.20;;;;;;;1.73;82.21;101658.34;5114292;27;20034;-75
2021/03/04 05:24:48;;;;;;;2.22;1.20;;;;;;;1.70;81.73;101658.72;5113593;27;20471;-74
2021/03/04 05:27:14;;;;;;;1.88;1.15;;;;;;;1.69;81.50;101667.84;5067840;28;20028;-75
2021/03/04 05:29:39;;;;;;;2.50;1.40;;;;;;;1.67;81.86;101659.13;5113692;27;20275;-76
2021/03/04 05:32:05;;;;;;;1.75;1.13;;;;;;;1.65;82.17;101671.09;5105184;28;20035;-75
2021/03/04 05:34:31;;;;;;;3.08;1.60;;;;;;;1.63;81.67;101679.34;5099800;27;20038;-75
2021/03/04 05:36:58;;;;;;;2.58;1.20;;;;;;;1.61;81.22;101676.03;5080800;27;20031;-75
2021/03/04 05:39:23;;;;;;;5.13;1.42;;;;;;;1.61;81.21;101680.53;5121176;27;20065;-75
2021/03/04 05:41:49;;;;;;;1.38;0.80;;;;;;;1.59;80.46;101674.56;5096133;27;20633;-75
2021/03/04 05:44:14;;;;;;;1.63;0.90;;;;;;;1.56;80.75;101678.47;5099806;27;20034;-75
2021/03/04 05:46:40;;;;;;;3.00;1.25;;;;;;;1.53;80.38;101673.47;5080688;27;20150;-75
2021/03/04 05:49:06;;;;;;;1.83;1.02;;;;;;;1.49;80.85;101673.00;5097406;27;20050;-75
2021/03/04 05:51:33;;;;;;;1.40;1.10;;;;;;;1.47;80.76;101684.97;5098987;27;20058;-75
2021/03/04 05:53:59;;;;;;;2.55;1.10;;;;;;;1.45;80.43;101681.66;5085607;27;20043;-75
2021/03/04 05:56:25;;;;;;;2.60;1.02;;;;;;;1.43;80.55;101689.06;5125947;27;20026;-75
2021/03/04 05:58:51;;;;;;;1.95;1.15;;;;;;;1.42;80.74;101687.38;5114403;27;20034;-75
2021/03/04 06:01:16;;;;;;;2.47;0.85;;;;;;;1.39;80.24;101694.00;5133218;27;20062;-75
2021/03/04 06:03:42;;;;;;;2.03;1.10;;;;;;;1.38;79.99;101695.00;5134224;27;20031;-75
2021/03/04 06:06:07;;;;;;;2.45;1.10;;;;;;;1.36;79.85;101690.84;5099849;27;20027;-75
2021/03/04 06:08:34;;;;;;;2.47;1.15;;;;;;;1.33;79.70;101697.44;5123364;27;20038;-75
2021/03/04 06:11:00;;;;;;;2.10;0.82;;;;;;;1.29;79.47;101702.34;5099467;27;20109;-75
2021/03/04 06:13:26;;;;;;;2.33;1.08;;;;;;;1.27;79.27;101696.34;5117622;27;20404;-75
2021/03/04 06:15:52;;;;;;;1.85;1.00;;;;;;;1.25;79.42;101705.59;5098492;27;20031;-72
2021/03/04 06:18:18;;;;;;;2.38;0.77;;;;;;;1.22;79.13;101708.66;5122321;27;20023;-73
2021/03/04 06:20:44;;;;;;;2.20;0.90;;;;;;;1.19;78.97;101717.13;5115546;27;20096;-74
2021/03/04 06:23:10;;;;;;;2.75;0.90;;;;;;;1.16;79.21;101715.63;5104562;27;22065;-75
2021/03/04 06:25:35;;;;;;;2.05;0.88;;;;;;;1.13;78.82;101713.31;5127554;27;20477;-75
2021/03/04 06:28:03;;;;;;;2.00;0.90;;;;;;;1.09;78.98;101726.31;5129867;27;20646;-73
2021/03/04 06:30:36;;;;;;;1.33;0.70;;;;;;;1.04;78.61;101728.72;5105134;27;20034;-72
2021/03/04 06:33:03;;;;;;;2.03;0.80;;;;;;;1.02;78.32;101736.13;5097175;27;20885;-72
2021/03/04 06:35:33;;;;;;;2.92;0.90;;;;;;;1.01;78.32;101738.97;5114743;27;20548;-75
2021/03/04 06:37:58;;;;;;;1.65;0.50;;;;;;;0.99;78.45;101741.88;5115525;27;20035;-74
2021/03/04 06:40:31;;;;;;;1.83;0.82;;;;;;;0.97;77.88;101743.06;5115297;27;20470;-74
2021/03/04 06:42:59;;;;;;;2.92;0.50;;;;;;;0.95;78.06;101751.31;5100096;27;20039;-75
2021/03/04 06:45:37;;;;;;;3.13;0.68;;;;;;;0.95;78.18;101745.94;5098895;27;20070;-75
2021/03/04 06:48:09;;;;;;;2.45;0.50;;;;;;;0.95;77.95;101745.09;5116650;27;20332;-74
2021/03/04 06:50:35;;;;;;;4.50;0.80;;;;;;;0.96;77.87;101749.47;5098827;27;20061;-75
2021/03/04 06:53:30;;;;;;;1.52;0.60;;;;;;;0.97;76.96;101759.19;5084189;27;20027;-75
2021/03/04 06:56:01;;;;;;;2.60;0.50;;;;;;;0.99;76.91;101754.47;5080941;27;20051;-74
2021/03/04 06:58:33;;;;;;;5.43;0.60;;;;;;;0.99;76.48;101763.34;5099364;27;20030;-74
2021/03/04 07:01:12;;;;;;;;;;;;;;;1.01;76.74;101771.22;5103704;27;20279;-74
2021/03/04 07:03:43;;;;;;;1.67;0.30;;;;;;;1.00;76.49;101761.50;5099784;27;19919;-75
2021/03/04 07:06:17;;;;;;;1.98;0.60;;;;;;;1.00;76.63;101754.25;5120775;27;20031;-74
2021/03/04 07:08:44;;;;;;;1.92;0.60;;;;;;;1.01;75.60;101761.31;5119920;27;20034;-75
2021/03/04 07:11:14;;;;;;;0.95;0.35;;;;;;;1.02;75.18;101756.78;5112257;27;20083;-74
2021/03/04 07:13:40;;;;;;;1.38;0.40;;;;;;;1.03;74.60;101770.00;5126084;27;20102;-74
2021/03/04 07:16:06;;;;;;;3.03;0.50;;;;;;;1.05;74.08;101761.78;5130839;27;20031;-75
2021/03/04 07:18:37;;;;;;;5.63;2.13;;;;;;;1.06;73.72;101756.22;5130771;27;20030;-74
2021/03/04 07:21:03;;;;;;;0.85;0.43;;;;;;;1.07;73.82;101765.13;5113930;27;20052;-74
2021/03/04 07:23:28;;;;;;;1.15;0.40;;;;;;;1.08;73.10;101761.41;5091672;27;20031;-75
2021/03/04 07:25:54;;;;;;;1.48;0.60;;;;;;;1.09;72.96;101763.91;5130527;27;20472;-74
2021/03/04 07:28:20;;;;;;;1.17;0.60;;;;;;;1.11;73.33;101766.38;5092319;27;20075;-74
2021/03/04 07:30:46;;;;;;;1.25;0.50;;;;;;;1.12;72.59;101768.06;5091796;27;20035;-75
2021/03/04 07:33:11;;;;;;;1.75;0.68;;;;;;;1.12;72.69;101778.81;5093648;27;20504;-75
2021/03/04 07:35:37;;;;;;;1.25;0.50;;;;;;;1.12;72.95;101778.81;5112446;27;20019;-75
2021/03/04 07:38:02;;;;;;;0.63;0.30;;;;;;;1.15;73.03;101783.81;5109730;27;20380;-74
2021/03/04 07:40:27;;;;;;;1.05;0.52;;;;;;;1.17;72.76;101779.06;5105725;27;20067;-74
2021/03/04 07:43:03;;;;;;;1.42;0.40;;;;;;;1.18;72.90;101783.44;5128882;27;20030;-75
2021/03/04 07:45:28;;;;;;;0.73;0.38;;;;;;;1.20;72.45;101785.91;5114290;27;20107;-75
2021/03/04 07:47:54;;;;;;;1.88;0.60;;;;;;;1.20;72.88;101792.16;5105909;27;20317;-74
2021/03/04 07:50:21;;;;;;;1.65;0.65;;;;;;;1.23;72.70;101793.63;5110440;27;20027;-75
2021/03/04 07:52:46;;;;;;;2.20;0.77;;;;;;;1.24;71.66;101795.28;5101393;27;20028;-75
2021/03/04 07:55:15;;;;;;;4.50;0.73;;;;;;;1.24;71.97;101792.59;5096350;27;20080;-74
2021/03/04 07:57:45;;;;;;;1.20;0.40;;;;;;;1.25;70.54;101799.63;5107476;27;20031;-74
2021/03/04 08:00:11;;;;;;;2.53;0.47;;;;;;;1.25;70.31;101805.81;5111376;27;20031;-74
2021/03/04 08:02:37;;;;;;;0.90;0.60;;;;;;;1.25;70.04;101803.13;5095062;27;20104;-74
2021/03/04 08:05:12;;;;;;;1.65;0.43;;;;;;;1.26;70.15;101799.44;5126783;27;20030;-74
2021/03/04 08:07:38;;;;;;;4.15;0.65;;;;;;;1.25;69.07;101805.81;5130912;27;20410;-74
2021/03/04 08:10:13;;;;;;;4.10;0.68;;;;;;;1.28;69.65;101802.78;5124420;27;20024;-75
2021/03/04 08:12:49;;;;;;;0.30;0.30;;;;;;;1.28;68.68;101810.84;5107526;27;20079;-76
2021/03/04 08:15:15;;;;;;;1.13;0.60;;;;;;;1.30;69.02;101811.47;5124391;27;20103;-74
2021/03/04 08:17:40;;;;;;;2.70;0.45;;;;;;;1.35;69.54;101828.91;5083495;27;20110;-75
2021/03/04 08:20:10;;;;;;;1.55;0.40;;;;;;;1.41;69.60;101817.41;5098284;27;20028;-72
2021/03/04 08:22:42;;;;;;;1.73;0.75;;;;;;;1.45;69.28;101818.69;5103297;27;20019;-72
2021/03/04 08:25:08;;;;;;;;;;;;;;;1.50;69.61;101818.94;5120868;27;20053;-72
2021/03/04 08:27:38;;;;;;;8.70;2.70;;;;;;;1.48;68.33;101812.94;5106082;27;19911;-72
2021/03/04 08:30:04;;;;;;;5.57;0.85;;;;;;;1.48;68.65;101823.69;5104583;27;20054;-72
2021/03/04 08:32:30;;;;;;;1.65;0.43;;;;;;;1.50;68.74;101819.81;5092695;27;20031;-72
2021/03/04 08:34:55;;;;;;;4.97;0.55;;;;;;;1.55;69.21;101816.53;5130313;27;20084;-73
2021/03/04 08:37:22;;;;;;;2.60;0.40;;;;;;;1.57;68.62;101819.88;5114143;27;20364;-71
2021/03/04 08:39:48;;;;;;;1.88;0.40;;;;;;;1.59;68.42;101828.59;5096196;27;20541;-72
2021/03/04 08:42:13;;;;;;;0.35;0.35;;;;;;;1.59;67.39;101811.63;5108012;28;20044;-72
2021/03/04 08:44:48;;;;;;;2.15;0.45;;;;;;;1.54;66.75;101825.63;5099974;28;20027;-72
2021/03/04 08:47:17;;;;;;;2.20;0.50;;;;;;;1.54;67.20;101821.06;5101468;28;20085;-72
2021/03/04 08:49:56;;;;;;;3.90;0.80;;;;;;;1.54;66.88;101822.94;5090144;28;20027;-75
2021/03/04 08:52:23;;;;;;;0.57;0.30;;;;;;;1.54;66.85;101815.69;5106122;28;20053;-74
2021/03/04 08:54:54;;;;;;;1.70;0.60;;;;;;;1.55;66.36;101811.16;5101491;28;20031;-75
2021/03/04 08:57:26;;;;;;;2.00;0.50;;;;;;;1.57;65.82;101802.91;5100967;28;20035;-74
2021/03/04 09:00:11;;;;;;;2.45;0.60;;;;;;;1.59;65.98;101812.44;5105261;28;20028;-74
2021/03/04 09:02:37;;;;;;;2.20;0.43;;;;;;;1.64;66.88;101818.09;5101361;28;20020;-74
2021/03/04 09:05:07;;;;;;;1.52;0.30;;;;;;;1.66;66.55;101805.28;5106732;28;20040;-75
2021/03/04 09:07:39;;;;;;;2.92;0.55;;;;;;;1.68;66.48;101808.63;5092929;28;20035;-74
2021/03/04 09:10:06;;;;;;;4.97;0.52;;;;;;;1.72;66.72;101807.22;5093976;28;20034;-75
2021/03/04 09:12:42;;;;;;;1.90;0.40;;;;;;;1.72;66.28;101809.91;5097221;28;20428;-75
2021/03/04 09:15:08;;;;;;;2.38;0.40;;;;;;;1.77;65.95;101815.56;5067532;28;20023;-74
2021/03/04 09:17:43;;;;;;;1.27;0.47;;;;;;;1.78;65.63;101811.00;5090564;28;20031;-75
2021/03/04 09:20:10;;;;;;;1.08;0.50;;;;;;;1.82;65.80;101816.84;5108687;28;20398;-74
2021/03/04 09:22:35;;;;;;;2.88;0.50;;;;;;;1.86;66.10;101823.50;5103954;28;20038;-74
2021/03/04 09:25:02;;;;;;;3.17;1.25;;;;;;;1.90;65.35;101819.41;5103542;28;20040;-75
2021/03/04 09:27:27;;;;;;;2.25;0.50;;;;;;;1.90;65.29;101814.84;5086041;28;20192;-75
2021/03/04 09:29:53;;;;;;;4.53;0.45;;;;;;;1.92;65.10;101828.13;5087448;28;20211;-74
2021/03/04 09:32:29;;;;;;;0.40;0.28;;;;;;;1.93;65.15;101825.22;5101692;28;20383;-74
2021/03/04 09:34:54;;;;;;;2.17;0.40;;;;;;;1.96;65.07;101835.63;5103392;28;20449;-75
2021/03/04 09:37:23;;;;;;;2.45;0.43;;;;;;;1.98;64.88;101830.88;5098830;28;20020;-73
2021/03/04 09:39:49;;;;;;;3.42;0.50;;;;;;;2.01;65.19;101829.66;5104929;28;20114;-72
2021/03/04 09:42:17;;;;;;;1.10;0.30;;;;;;;2.04;64.49;101837.34;5090419;28;20047;-72
2021/03/04 09:44:49;;;;;;;1.75;0.30;;;;;;;2.06;64.47;101829.91;5105001;28;20084;-73
2021/03/04 09:47:33;;;;;;;2.13;0.40;;;;;;;2.11;64.02;101835.56;5107058;28;20069;-72
2021/03/04 09:49:59;;;;;;;1.75;0.55;;;;;;;2.14;63.97;101832.47;5103865;28;20039;-72
2021/03/04 09:52:26;;;;;;;1.67;0.40;;;;;;;2.18;63.79;101844.53;5111013;28;20097;-72
2021/03/04 09:54:52;;;;;;;5.63;0.63;;;;;;;2.22;63.55;101831.53;5091740;28;20024;-73
2021/03/04 09:57:20;;;;;;;0.50;0.30;;;;;;;2.22;64.12;101843.09;5105557;28;20175;-73
2021/03/04 09:59:50;;;;;;;1.08;0.40;;;;;;;2.27;63.72;101844.41;5087528;28;20536;-73
2021/03/04 10:02:16;;;;;;;2.58;0.40;;;;;;;2.31;63.17;101842.97;5108076;28;20478;-73
2021/03/04 10:05:00;;;;;;;2.33;0.40;;;;;;;2.33;63.48;101840.94;5089551;28;20061;-72
2021/03/04 10:07:26;;;;;;;1.02;0.40;;;;;;;2.35;62.48;101844.28;5102953;28;20435;-73
2021/03/04 10:09:51;;;;;;;1.58;0.40;;;;;;;2.39;62.76;101845.53;5091358;28;20118;-72
2021/03/04 10:12:16;;;;;;;2.40;0.50;;;;;;;2.43;62.52;101846.84;5106181;28;20030;-75
2021/03/04 10:14:43;;;;;;;0.95;0.50;;;;;;;2.52;63.12;101844.84;5105924;28;20323;-75
2021/03/04 10:17:08;;;;;;;2.92;0.55;;;;;;;2.58;62.62;101847.56;5086205;28;20024;-74
2021/03/04 10:19:34;;;;;;;6.05;0.60;;;;;;;2.62;62.49;101850.72;5107852;28;20384;-75
2021/03/04 10:21:59;;;;;;;2.83;0.45;;;;;;;2.67;63.03;101843.72;5107279;28;20024;-75
2021/03/04 10:24:24;;;;;;;2.83;0.35;;;;;;;2.74;62.30;101842.94;5085085;28;20023;-74
2021/03/04 10:26:50;;;;;;;2.38;0.40;;;;;;;2.78;62.76;101855.81;5101205;28;20402;-75
2021/03/04 10:29:15;;;;;;;3.45;0.30;;;;;;;2.83;62.69;101857.91;5105276;28;20036;-74
2021/03/04 10:31:41;;;;;;;1.00;0.25;;;;;;;2.85;61.96;101856.69;5103149;28;20069;-75
2021/03/04 10:34:06;;;;;;;0.20;0.20;;;;;;;2.83;61.70;101853.34;5084672;28;20038;-75
2021/03/04 10:36:32;;;;;;;2.38;0.30;;;;;;;2.83;61.21;101860.59;5103538;28;20019;-74
2021/03/04 10:38:57;;;;;;;3.70;0.40;;;;;;;2.84;61.00;101867.66;5108928;27;20039;-76
2021/03/04 10:41:22;;;;;;;1.73;0.50;;;;;;;2.91;60.87;101870.41;5112535;27;20040;-75
2021/03/04 10:43:48;;;;;;;0.85;0.30;;;;;;;2.98;60.71;101855.94;5105398;27;20495;-75
2021/03/04 10:46:13;;;;;;;1.45;0.50;;;;;;;3.06;60.97;101853.09;5096017;27;20030;-73
2021/03/04 10:48:38;;;;;;;0.73;0.32;;;;;;;3.15;60.99;101856.47;5131332;27;20092;-73
2021/03/04 10:51:04;;;;;;;2.50;0.40;;;;;;;3.19;60.22;101863.13;5111563;27;20110;-73
2021/03/04 10:53:29;;;;;;;1.05;0.40;;;;;;;3.19;59.44;101854.19;5126646;27;20100;-73
2021/03/04 10:55:55;;;;;;;1.05;0.40;;;;;;;3.21;59.07;101854.84;5113726;27;20019;-72
2021/03/04 10:58:22;;;;;;;2.10;0.30;;;;;;;3.27;59.11;101832.47;5127270;27;20028;-73
2021/03/04 11:00:47;;;;;;;0.73;0.40;;;;;;;3.30;58.47;101848.25;5123313;27;20491;-73
2021/03/04 11:03:13;;;;;;;3.53;0.38;;;;;;;3.37;58.22;101843.72;5106808;27;20031;-73
2021/03/04 11:05:38;;;;;;;4.50;0.60;;;;;;;3.40;57.76;101859.50;5125753;27;20481;-73
2021/03/04 11:08:04;;;;;;;4.68;0.65;;;;;;;3.47;57.81;101848.75;5130056;27;20619;-73
2021/03/04 11:10:29;;;;;;;1.67;0.20;;;;;;;3.53;57.20;101846.09;5132232;27;20466;-73
2021/03/04 11:12:54;;;;;;;0.63;0.22;;;;;;;3.54;56.80;101846.91;5111974;27;20034;-73
2021/03/04 11:15:20;;;;;;;0.85;0.45;;;;;;;3.55;55.92;101835.13;5111823;27;20027;-73
2021/03/04 11:17:45;;;;;;;1.08;0.30;;;;;;;3.62;56.23;101851.31;5111057;27;20033;-74
2021/03/04 11:20:11;;;;;;;5.40;0.70;;;;;;;3.71;56.17;101847.38;5134502;27;20023;-73
2021/03/04 11:22:36;;;;;;;1.70;0.40;;;;;;;3.78;56.79;101856.34;5129513;27;20015;-73
2021/03/04 11:25:03;;;;;;;1.25;0.32;;;;;;;3.87;56.79;101852.41;5112004;27;20030;-74
2021/03/04 11:27:28;;;;;;;4.63;0.40;;;;;;;3.98;57.12;101846.47;5125425;27;20029;-73
2021/03/04 11:29:55;;;;;;;1.95;0.63;;;;;;;4.09;56.89;101857.66;5109462;27;20491;-73
2021/03/04 11:32:20;;;;;;;2.28;0.50;;;;;;;4.08;56.85;101850.63;5110451;27;20027;-73